sensor_id;sensor_type;location;lat;lon;timestamp;P1;durP1;ratioP1;P2;durP2;ratioP2
45356;SDS011;31092;51.924;21.448;2022-08-21T00:01:35;2.72;;;2.53;;
45356;SDS011;31092;51.924;21.448;2022-08-21T00:04:07;2.60;;;2.40;;
45356;SDS011;31092;51.924;21.448;2022-08-21T00:06:33;2.23;;;2.03;;
45356;SDS011;31092;51.924;21.448;2022-08-21T00:09:08;2.92;;;2.08;;
45356;SDS011;31092;51.924;21.448;2022-08-21T00:11:35;4.68;;;1.98;;
45356;SDS011;31092;51.924;21.448;2022-08-21T00:14:03;3.00;;;1.90;;
45356;SDS011;31092;51.924;21.448;2022-08-21T00:16:33;2.72;;;2.05;;
45356;SDS011;31092;51.924;21.448;2022-08-21T00:18:59;1.77;;;1.65;;
45356;SDS011;31092;51.924;21.448;2022-08-21T00:21:25;4.90;;;2.40;;
45356;SDS011;31092;51.924;21.448;2022-08-21T00:23:52;2.30;;;2.10;;
45356;SDS011;31092;51.924;21.448;2022-08-21T00:26:17;2.38;;;2.17;;
45356;SDS011;31092;51.924;21.448;2022-08-21T00:28:43;2.35;;;2.15;;
45356;SDS011;31092;51.924;21.448;2022-08-21T00:31:11;2.30;;;1.90;;
45356;SDS011;31092;51.924;21.448;2022-08-21T00:33:37;3.38;;;2.17;;
45356;SDS011;31092;51.924;21.448;2022-08-21T00:36:03;2.38;;;2.05;;
45356;SDS011;31092;51.924;21.448;2022-08-21T00:38:29;3.10;;;2.25;;
45356;SDS011;31092;51.924;21.448;2022-08-21T00:40:56;2.70;;;2.13;;
45356;SDS011;31092;51.924;21.448;2022-08-21T00:43:28;2.47;;;2.20;;
45356;SDS011;31092;51.924;21.448;2022-08-21T00:45:57;2.25;;;2.05;;
45356;SDS011;31092;51.924;21.448;2022-08-21T00:48:23;3.97;;;2.20;;
45356;SDS011;31092;51.924;21.448;2022-08-21T00:50:51;1.85;;;1.65;;
45356;SDS011;31092;51.924;21.448;2022-08-21T00:53:30;1.98;;;1.88;;
45356;SDS011;31092;51.924;21.448;2022-08-21T00:55:58;2.63;;;2.05;;
45356;SDS011;31092;51.924;21.448;2022-08-21T00:58:26;2.80;;;2.00;;
45356;SDS011;31092;51.924;21.448;2022-08-21T01:00:54;4.25;;;2.05;;
45356;SDS011;31092;51.924;21.448;2022-08-21T01:03:21;3.55;;;2.22;;
45356;SDS011;31092;51.924;21.448;2022-08-21T01:05:54;2.92;;;2.20;;
45356;SDS011;31092;51.924;21.448;2022-08-21T01:08:22;2.60;;;2.22;;
45356;SDS011;31092;51.924;21.448;2022-08-21T01:10:49;3.83;;;2.13;;
45356;SDS011;31092;51.924;21.448;2022-08-21T01:13:17;2.40;;;2.13;;
45356;SDS011;31092;51.924;21.448;2022-08-21T01:15:45;1.95;;;1.77;;
45356;SDS011;31092;51.924;21.448;2022-08-21T01:18:13;3.20;;;2.70;;
45356;SDS011;31092;51.924;21.448;2022-08-21T01:20:43;1.85;;;1.75;;
45356;SDS011;31092;51.924;21.448;2022-08-21T01:23:10;2.40;;;2.20;;
45356;SDS011;31092;51.924;21.448;2022-08-21T01:25:37;5.50;;;1.90;;
45356;SDS011;31092;51.924;21.448;2022-08-21T01:28:08;2.22;;;2.03;;
45356;SDS011;31092;51.924;21.448;2022-08-21T01:30:38;2.85;;;2.55;;
45356;SDS011;31092;51.924;21.448;2022-08-21T01:33:06;2.67;;;1.70;;
45356;SDS011;31092;51.924;21.448;2022-08-21T01:35:32;2.65;;;2.45;;
45356;SDS011;31092;51.924;21.448;2022-08-21T01:37:57;2.25;;;2.05;;
45356;SDS011;31092;51.924;21.448;2022-08-21T01:40:23;2.65;;;2.20;;
45356;SDS011;31092;51.924;21.448;2022-08-21T01:42:49;2.30;;;2.00;;
45356;SDS011;31092;51.924;21.448;2022-08-21T01:45:14;2.47;;;2.00;;
45356;SDS011;31092;51.924;21.448;2022-08-21T01:47:41;2.30;;;2.10;;
45356;SDS011;31092;51.924;21.448;2022-08-21T01:50:09;2.35;;;2.00;;
45356;SDS011;31092;51.924;21.448;2022-08-21T01:52:40;1.88;;;1.70;;
45356;SDS011;31092;51.924;21.448;2022-08-21T01:55:06;2.30;;;2.10;;
45356;SDS011;31092;51.924;21.448;2022-08-21T01:57:34;2.55;;;2.10;;
45356;SDS011;31092;51.924;21.448;2022-08-21T02:00:00;4.68;;;2.33;;
45356;SDS011;31092;51.924;21.448;2022-08-21T02:02:26;3.28;;;2.08;;
45356;SDS011;31092;51.924;21.448;2022-08-21T02:04:51;2.47;;;2.20;;
45356;SDS011;31092;51.924;21.448;2022-08-21T02:07:17;2.50;;;1.92;;
45356;SDS011;31092;51.924;21.448;2022-08-21T02:09:43;2.72;;;1.80;;
45356;SDS011;31092;51.924;21.448;2022-08-21T02:12:18;2.72;;;2.53;;
45356;SDS011;31092;51.924;21.448;2022-08-21T02:14:44;2.10;;;1.88;;
45356;SDS011;31092;51.924;21.448;2022-08-21T02:17:09;2.55;;;2.35;;
45356;SDS011;31092;51.924;21.448;2022-08-21T02:19:36;2.30;;;1.77;;
45356;SDS011;31092;51.924;21.448;2022-08-21T02:22:02;1.88;;;1.77;;
45356;SDS011;31092;51.924;21.448;2022-08-21T02:24:28;2.00;;;1.80;;
45356;SDS011;31092;51.924;21.448;2022-08-21T02:26:56;2.65;;;2.10;;
45356;SDS011;31092;51.924;21.448;2022-08-21T02:29:22;1.95;;;1.85;;
45356;SDS011;31092;51.924;21.448;2022-08-21T02:31:47;2.75;;;2.47;;
45356;SDS011;31092;51.924;21.448;2022-08-21T02:34:13;2.97;;;2.17;;
45356;SDS011;31092;51.924;21.448;2022-08-21T02:36:39;1.75;;;1.65;;
45356;SDS011;31092;51.924;21.448;2022-08-21T02:39:04;4.63;;;2.03;;
45356;SDS011;31092;51.924;21.448;2022-08-21T02:41:30;2.00;;;1.80;;
45356;SDS011;31092;51.924;21.448;2022-08-21T02:43:56;4.63;;;2.30;;
45356;SDS011;31092;51.924;21.448;2022-08-21T02:46:22;3.13;;;1.90;;
45356;SDS011;31092;51.924;21.448;2022-08-21T02:48:48;2.30;;;2.03;;
45356;SDS011;31092;51.924;21.448;2022-08-21T02:51:16;2.17;;;1.98;;
45356;SDS011;31092;51.924;21.448;2022-08-21T02:53:43;2.28;;;2.05;;
45356;SDS011;31092;51.924;21.448;2022-08-21T02:56:11;2.38;;;2.17;;
45356;SDS011;31092;51.924;21.448;2022-08-21T02:58:39;1.75;;;1.65;;
45356;SDS011;31092;51.924;21.448;2022-08-21T03:01:12;3.60;;;1.85;;
45356;SDS011;31092;51.924;21.448;2022-08-21T03:03:39;2.45;;;2.15;;
45356;SDS011;31092;51.924;21.448;2022-08-21T03:06:07;1.77;;;1.67;;
45356;SDS011;31092;51.924;21.448;2022-08-21T03:08:34;1.85;;;1.70;;
45356;SDS011;31092;51.924;21.448;2022-08-21T03:11:00;1.70;;;1.60;;
45356;SDS011;31092;51.924;21.448;2022-08-21T03:13:26;1.95;;;1.77;;
45356;SDS011;31092;51.924;21.448;2022-08-21T03:15:52;2.00;;;1.80;;
45356;SDS011;31092;51.924;21.448;2022-08-21T03:18:18;2.13;;;2.03;;
45356;SDS011;31092;51.924;21.448;2022-08-21T03:20:45;2.17;;;1.88;;
45356;SDS011;31092;51.924;21.448;2022-08-21T03:23:11;1.83;;;1.73;;
45356;SDS011;31092;51.924;21.448;2022-08-21T03:25:38;1.70;;;1.60;;
45356;SDS011;31092;51.924;21.448;2022-08-21T03:28:06;2.35;;;1.98;;
45356;SDS011;31092;51.924;21.448;2022-08-21T03:30:39;1.80;;;1.70;;
45356;SDS011;31092;51.924;21.448;2022-08-21T03:33:06;2.63;;;2.03;;
45356;SDS011;31092;51.924;21.448;2022-08-21T03:35:31;3.78;;;2.10;;
45356;SDS011;31092;51.924;21.448;2022-08-21T03:38:00;3.33;;;2.75;;
45356;SDS011;31092;51.924;21.448;2022-08-21T03:40:26;1.77;;;1.52;;
45356;SDS011;31092;51.924;21.448;2022-08-21T03:42:57;2.10;;;1.67;;
45356;SDS011;31092;51.924;21.448;2022-08-21T03:45:24;2.17;;;1.95;;
45356;SDS011;31092;51.924;21.448;2022-08-21T03:47:57;2.00;;;1.85;;
45356;SDS011;31092;51.924;21.448;2022-08-21T03:50:26;1.88;;;1.77;;
45356;SDS011;31092;51.924;21.448;2022-08-21T03:52:55;2.00;;;1.83;;
45356;SDS011;31092;51.924;21.448;2022-08-21T03:55:20;3.38;;;2.65;;
45356;SDS011;31092;51.924;21.448;2022-08-21T03:57:46;2.40;;;1.92;;
45356;SDS011;31092;51.924;21.448;2022-08-21T04:00:13;2.33;;;1.83;;
45356;SDS011;31092;51.924;21.448;2022-08-21T04:02:40;2.00;;;1.73;;
45356;SDS011;31092;51.924;21.448;2022-08-21T04:05:06;4.10;;;1.83;;
45356;SDS011;31092;51.924;21.448;2022-08-21T04:07:33;2.25;;;2.05;;
45356;SDS011;31092;51.924;21.448;2022-08-21T04:09:59;2.10;;;1.90;;
45356;SDS011;31092;51.924;21.448;2022-08-21T04:12:24;2.30;;;2.05;;
45356;SDS011;31092;51.924;21.448;2022-08-21T04:14:50;2.53;;;2.07;;
45356;SDS011;31092;51.924;21.448;2022-08-21T04:17:18;2.45;;;2.13;;
45356;SDS011;31092;51.924;21.448;2022-08-21T04:19:44;3.45;;;2.00;;
45356;SDS011;31092;51.924;21.448;2022-08-21T04:22:10;2.03;;;1.77;;
45356;SDS011;31092;51.924;21.448;2022-08-21T04:24:35;4.45;;;2.58;;
45356;SDS011;31092;51.924;21.448;2022-08-21T04:27:01;2.42;;;2.22;;
45356;SDS011;31092;51.924;21.448;2022-08-21T04:29:27;2.97;;;2.67;;
45356;SDS011;31092;51.924;21.448;2022-08-21T04:31:53;3.45;;;1.75;;
45356;SDS011;31092;51.924;21.448;2022-08-21T04:34:20;1.92;;;1.83;;
45356;SDS011;31092;51.924;21.448;2022-08-21T04:36:45;2.03;;;1.92;;
45356;SDS011;31092;51.924;21.448;2022-08-21T04:39:11;2.95;;;2.05;;
45356;SDS011;31092;51.924;21.448;2022-08-21T04:41:37;3.92;;;2.10;;
45356;SDS011;31092;51.924;21.448;2022-08-21T04:44:03;2.67;;;1.98;;
45356;SDS011;31092;51.924;21.448;2022-08-21T04:46:38;2.88;;;2.58;;
45356;SDS011;31092;51.924;21.448;2022-08-21T04:49:04;2.25;;;2.05;;
45356;SDS011;31092;51.924;21.448;2022-08-21T04:51:31;3.15;;;1.95;;
45356;SDS011;31092;51.924;21.448;2022-08-21T04:54:10;2.67;;;2.47;;
45356;SDS011;31092;51.924;21.448;2022-08-21T04:56:42;2.28;;;2.08;;
45356;SDS011;31092;51.924;21.448;2022-08-21T04:59:22;2.42;;;2.22;;
45356;SDS011;31092;51.924;21.448;2022-08-21T05:01:53;2.58;;;2.13;;
45356;SDS011;31092;51.924;21.448;2022-08-21T05:04:22;2.65;;;2.00;;
45356;SDS011;31092;51.924;21.448;2022-08-21T05:06:52;4.07;;;2.38;;
45356;SDS011;31092;51.924;21.448;2022-08-21T05:09:20;3.63;;;2.33;;
45356;SDS011;31092;51.924;21.448;2022-08-21T05:11:47;3.67;;;2.13;;
45356;SDS011;31092;51.924;21.448;2022-08-21T05:14:14;2.83;;;2.20;;
45356;SDS011;31092;51.924;21.448;2022-08-21T05:16:40;2.00;;;1.90;;
45356;SDS011;31092;51.924;21.448;2022-08-21T05:19:08;3.22;;;2.10;;
45356;SDS011;31092;51.924;21.448;2022-08-21T05:21:34;3.15;;;2.10;;
45356;SDS011;31092;51.924;21.448;2022-08-21T05:24:04;1.85;;;1.63;;
45356;SDS011;31092;51.924;21.448;2022-08-21T05:26:33;2.45;;;2.25;;
45356;SDS011;31092;51.924;21.448;2022-08-21T05:28:58;3.53;;;2.53;;
45356;SDS011;31092;51.924;21.448;2022-08-21T05:31:28;2.72;;;1.73;;
45356;SDS011;31092;51.924;21.448;2022-08-21T05:33:53;2.40;;;2.20;;
45356;SDS011;31092;51.924;21.448;2022-08-21T05:36:19;2.22;;;2.05;;
45356;SDS011;31092;51.924;21.448;2022-08-21T05:39:06;2.35;;;2.15;;
45356;SDS011;31092;51.924;21.448;2022-08-21T05:41:32;5.60;;;2.50;;
45356;SDS011;31092;51.924;21.448;2022-08-21T05:43:57;3.58;;;2.05;;
45356;SDS011;31092;51.924;21.448;2022-08-21T05:46:23;2.65;;;2.17;;
45356;SDS011;31092;51.924;21.448;2022-08-21T05:48:49;2.30;;;1.95;;
45356;SDS011;31092;51.924;21.448;2022-08-21T05:51:15;2.05;;;1.90;;
45356;SDS011;31092;51.924;21.448;2022-08-21T05:53:47;2.42;;;2.22;;
45356;SDS011;31092;51.924;21.448;2022-08-21T05:56:13;2.38;;;1.95;;
45356;SDS011;31092;51.924;21.448;2022-08-21T05:58:40;2.45;;;2.25;;
45356;SDS011;31092;51.924;21.448;2022-08-21T06:01:06;2.65;;;2.45;;
45356;SDS011;31092;51.924;21.448;2022-08-21T06:03:35;2.60;;;2.40;;
45356;SDS011;31092;51.924;21.448;2022-08-21T06:06:03;3.10;;;2.60;;
45356;SDS011;31092;51.924;21.448;2022-08-21T06:11:20;2.88;;;2.33;;
45356;SDS011;31092;51.924;21.448;2022-08-21T06:13:46;3.20;;;2.58;;
45356;SDS011;31092;51.924;21.448;2022-08-21T06:16:13;1.98;;;1.88;;
45356;SDS011;31092;51.924;21.448;2022-08-21T06:18:40;2.58;;;2.38;;
45356;SDS011;31092;51.924;21.448;2022-08-21T06:21:07;2.45;;;2.25;;
45356;SDS011;31092;51.924;21.448;2022-08-21T06:23:33;2.47;;;2.35;;
45356;SDS011;31092;51.924;21.448;2022-08-21T06:26:00;3.40;;;2.72;;
45356;SDS011;31092;51.924;21.448;2022-08-21T06:30:55;2.00;;;1.90;;
45356;SDS011;31092;51.924;21.448;2022-08-21T06:33:21;2.10;;;1.90;;
45356;SDS011;31092;51.924;21.448;2022-08-21T06:35:46;3.17;;;2.90;;
45356;SDS011;31092;51.924;21.448;2022-08-21T06:38:12;2.90;;;2.30;;
45356;SDS011;31092;51.924;21.448;2022-08-21T06:40:37;3.53;;;2.38;;
45356;SDS011;31092;51.924;21.448;2022-08-21T06:43:12;2.70;;;2.50;;
45356;SDS011;31092;51.924;21.448;2022-08-21T06:45:39;1.85;;;1.67;;
45356;SDS011;31092;51.924;21.448;2022-08-21T06:48:05;3.60;;;2.22;;
45356;SDS011;31092;51.924;21.448;2022-08-21T06:50:32;2.03;;;1.83;;
45356;SDS011;31092;51.924;21.448;2022-08-21T06:53:04;3.83;;;2.30;;
45356;SDS011;31092;51.924;21.448;2022-08-21T06:55:35;1.98;;;1.77;;
45356;SDS011;31092;51.924;21.448;2022-08-21T06:58:01;2.50;;;2.03;;
45356;SDS011;31092;51.924;21.448;2022-08-21T07:00:49;2.10;;;1.90;;
45356;SDS011;31092;51.924;21.448;2022-08-21T07:03:22;1.92;;;1.83;;
45356;SDS011;31092;51.924;21.448;2022-08-21T07:05:48;4.18;;;2.78;;
45356;SDS011;31092;51.924;21.448;2022-08-21T07:08:14;3.65;;;2.58;;
45356;SDS011;31092;51.924;21.448;2022-08-21T07:10:50;2.35;;;2.17;;
45356;SDS011;31092;51.924;21.448;2022-08-21T07:13:18;2.65;;;2.45;;
45356;SDS011;31092;51.924;21.448;2022-08-21T07:15:44;3.33;;;2.25;;
45356;SDS011;31092;51.924;21.448;2022-08-21T07:18:10;2.78;;;2.53;;
45356;SDS011;31092;51.924;21.448;2022-08-21T07:20:36;1.98;;;1.88;;
45356;SDS011;31092;51.924;21.448;2022-08-21T07:23:03;2.70;;;2.30;;
45356;SDS011;31092;51.924;21.448;2022-08-21T07:25:32;2.33;;;2.13;;
45356;SDS011;31092;51.924;21.448;2022-08-21T07:27:58;2.17;;;2.00;;
45356;SDS011;31092;51.924;21.448;2022-08-21T07:30:24;2.80;;;2.60;;
45356;SDS011;31092;51.924;21.448;2022-08-21T07:32:51;2.70;;;2.50;;
45356;SDS011;31092;51.924;21.448;2022-08-21T07:35:25;2.47;;;2.28;;
45356;SDS011;31092;51.924;21.448;2022-08-21T07:37:53;2.88;;;2.50;;
45356;SDS011;31092;51.924;21.448;2022-08-21T07:40:18;2.40;;;2.25;;
45356;SDS011;31092;51.924;21.448;2022-08-21T07:42:45;2.38;;;2.17;;
45356;SDS011;31092;51.924;21.448;2022-08-21T07:45:14;2.70;;;2.50;;
45356;SDS011;31092;51.924;21.448;2022-08-21T07:47:41;2.67;;;2.47;;
45356;SDS011;31092;51.924;21.448;2022-08-21T07:50:07;2.20;;;2.08;;
45356;SDS011;31092;51.924;21.448;2022-08-21T07:52:33;3.30;;;1.90;;
45356;SDS011;31092;51.924;21.448;2022-08-21T07:54:59;2.45;;;2.25;;
45356;SDS011;31092;51.924;21.448;2022-08-21T07:57:25;1.92;;;1.83;;
45356;SDS011;31092;51.924;21.448;2022-08-21T07:59:50;1.80;;;1.70;;
45356;SDS011;31092;51.924;21.448;2022-08-21T08:02:26;2.33;;;2.05;;
45356;SDS011;31092;51.924;21.448;2022-08-21T08:04:53;3.38;;;2.72;;
45356;SDS011;31092;51.924;21.448;2022-08-21T08:07:19;3.08;;;2.38;;
45356;SDS011;31092;51.924;21.448;2022-08-21T08:09:44;6.32;;;2.10;;
45356;SDS011;31092;51.924;21.448;2022-08-21T08:12:10;1.98;;;1.88;;
45356;SDS011;31092;51.924;21.448;2022-08-21T08:14:36;1.73;;;1.63;;
45356;SDS011;31092;51.924;21.448;2022-08-21T08:17:02;4.85;;;2.40;;
45356;SDS011;31092;51.924;21.448;2022-08-21T08:19:28;2.70;;;2.33;;
45356;SDS011;31092;51.924;21.448;2022-08-21T08:21:54;2.28;;;1.98;;
45356;SDS011;31092;51.924;21.448;2022-08-21T08:24:19;2.22;;;2.00;;
45356;SDS011;31092;51.924;21.448;2022-08-21T08:26:45;6.70;;;2.20;;
45356;SDS011;31092;51.924;21.448;2022-08-21T08:29:11;2.08;;;1.90;;
45356;SDS011;31092;51.924;21.448;2022-08-21T08:31:37;1.67;;;1.58;;
45356;SDS011;31092;51.924;21.448;2022-08-21T08:34:03;1.90;;;1.80;;
45356;SDS011;31092;51.924;21.448;2022-08-21T08:36:33;1.40;;;1.10;;
45356;SDS011;31092;51.924;21.448;2022-08-21T08:39:00;2.00;;;1.50;;
45356;SDS011;31092;51.924;21.448;2022-08-21T08:41:27;1.30;;;1.15;;
45356;SDS011;31092;51.924;21.448;2022-08-21T08:43:55;1.35;;;1.25;;
45356;SDS011;31092;51.924;21.448;2022-08-21T08:46:45;1.00;;;1.00;;
45356;SDS011;31092;51.924;21.448;2022-08-21T08:49:20;1.58;;;1.48;;
45356;SDS011;31092;51.924;21.448;2022-08-21T08:51:55;1.95;;;1.80;;
45356;SDS011;31092;51.924;21.448;2022-08-21T08:54:31;1.38;;;1.27;;
45356;SDS011;31092;51.924;21.448;2022-08-21T08:57:19;1.17;;;1.10;;
45356;SDS011;31092;51.924;21.448;2022-08-21T08:59:53;1.60;;;1.50;;
45356;SDS011;31092;51.924;21.448;2022-08-21T09:03:05;1.10;;;1.10;;
45356;SDS011;31092;51.924;21.448;2022-08-21T09:06:39;1.30;;;1.20;;
45356;SDS011;31092;51.924;21.448;2022-08-21T09:11:57;1.42;;;1.33;;
45356;SDS011;31092;51.924;21.448;2022-08-21T09:14:31;1.50;;;1.40;;
45356;SDS011;31092;51.924;21.448;2022-08-21T09:22:56;1.35;;;1.25;;
45356;SDS011;31092;51.924;21.448;2022-08-21T09:25:33;1.30;;;1.17;;
45356;SDS011;31092;51.924;21.448;2022-08-21T09:28:08;1.38;;;1.27;;
45356;SDS011;31092;51.924;21.448;2022-08-21T09:30:39;1.33;;;1.23;;
45356;SDS011;31092;51.924;21.448;2022-08-21T09:33:06;1.33;;;1.23;;
45356;SDS011;31092;51.924;21.448;2022-08-21T09:35:36;1.20;;;1.10;;
45356;SDS011;31092;51.924;21.448;2022-08-21T09:38:22;1.48;;;1.15;;
45356;SDS011;31092;51.924;21.448;2022-08-21T09:40:55;1.42;;;1.33;;
45356;SDS011;31092;51.924;21.448;2022-08-21T09:43:26;2.10;;;1.60;;
45356;SDS011;31092;51.924;21.448;2022-08-21T09:46:03;1.70;;;1.48;;
45356;SDS011;31092;51.924;21.448;2022-08-21T09:48:41;2.45;;;1.52;;
45356;SDS011;31092;51.924;21.448;2022-08-21T09:51:11;1.67;;;1.58;;
45356;SDS011;31092;51.924;21.448;2022-08-21T09:53:42;1.45;;;1.35;;
45356;SDS011;31092;51.924;21.448;2022-08-21T09:56:21;1.17;;;1.08;;
45356;SDS011;31092;51.924;21.448;2022-08-21T09:59:18;1.48;;;1.38;;
45356;SDS011;31092;51.924;21.448;2022-08-21T10:01:50;1.25;;;1.15;;
45356;SDS011;31092;51.924;21.448;2022-08-21T10:04:38;1.40;;;1.30;;
45356;SDS011;31092;51.924;21.448;2022-08-21T10:07:10;1.10;;;1.08;;
45356;SDS011;31092;51.924;21.448;2022-08-21T10:09:38;1.20;;;1.17;;
45356;SDS011;31092;51.924;21.448;2022-08-21T10:12:16;1.08;;;1.08;;
45356;SDS011;31092;51.924;21.448;2022-08-21T10:17:44;1.60;;;1.50;;
45356;SDS011;31092;51.924;21.448;2022-08-21T10:36:52;1.25;;;1.15;;
45356;SDS011;31092;51.924;21.448;2022-08-21T10:39:31;1.35;;;1.25;;
45356;SDS011;31092;51.924;21.448;2022-08-21T10:42:09;1.27;;;1.17;;
45356;SDS011;31092;51.924;21.448;2022-08-21T10:44:53;1.33;;;1.23;;
45356;SDS011;31092;51.924;21.448;2022-08-21T10:47:34;1.35;;;1.10;;
45356;SDS011;31092;51.924;21.448;2022-08-21T10:50:16;1.25;;;1.13;;
45356;SDS011;31092;51.924;21.448;2022-08-21T10:55:24;1.40;;;1.30;;
45356;SDS011;31092;51.924;21.448;2022-08-21T11:00:46;1.52;;;1.42;;
45356;SDS011;31092;51.924;21.448;2022-08-21T11:05:42;1.40;;;1.20;;
45356;SDS011;31092;51.924;21.448;2022-08-21T11:08:15;1.60;;;1.50;;
45356;SDS011;31092;51.924;21.448;2022-08-21T11:21:48;1.70;;;1.60;;
45356;SDS011;31092;51.924;21.448;2022-08-21T11:29:56;1.67;;;1.58;;
45356;SDS011;31092;51.924;21.448;2022-08-21T11:38:11;2.60;;;1.40;;
45356;SDS011;31092;51.924;21.448;2022-08-21T11:40:56;1.60;;;1.50;;
45356;SDS011;31092;51.924;21.448;2022-08-21T11:43:34;1.33;;;1.27;;
45356;SDS011;31092;51.924;21.448;2022-08-21T11:51:46;1.50;;;1.38;;
45356;SDS011;31092;51.924;21.448;2022-08-21T11:59:45;1.38;;;1.27;;
45356;SDS011;31092;51.924;21.448;2022-08-21T12:02:18;2.05;;;1.85;;
45356;SDS011;31092;51.924;21.448;2022-08-21T12:04:47;1.60;;;1.50;;
45356;SDS011;31092;51.924;21.448;2022-08-21T12:07:29;1.38;;;1.27;;
45356;SDS011;31092;51.924;21.448;2022-08-21T12:09:58;1.60;;;1.50;;
45356;SDS011;31092;51.924;21.448;2022-08-21T12:12:26;1.88;;;1.77;;
45356;SDS011;31092;51.924;21.448;2022-08-21T12:17:52;1.65;;;1.55;;
45356;SDS011;31092;51.924;21.448;2022-08-21T12:23:02;1.73;;;1.63;;
45356;SDS011;31092;51.924;21.448;2022-08-21T12:25:48;1.55;;;1.45;;
45356;SDS011;31092;51.924;21.448;2022-08-21T12:28:26;1.92;;;1.83;;
45356;SDS011;31092;51.924;21.448;2022-08-21T12:30:53;1.77;;;1.67;;
45356;SDS011;31092;51.924;21.448;2022-08-21T12:33:23;1.70;;;1.60;;
45356;SDS011;31092;51.924;21.448;2022-08-21T12:36:07;2.47;;;2.10;;
45356;SDS011;31092;51.924;21.448;2022-08-21T12:38:48;1.80;;;1.70;;
45356;SDS011;31092;51.924;21.448;2022-08-21T12:41:28;2.55;;;1.83;;
45356;SDS011;31092;51.924;21.448;2022-08-21T12:44:10;2.13;;;1.95;;
45356;SDS011;31092;51.924;21.448;2022-08-21T12:46:43;1.67;;;1.58;;
45356;SDS011;31092;51.924;21.448;2022-08-21T12:49:14;2.05;;;1.88;;
45356;SDS011;31092;51.924;21.448;2022-08-21T12:54:37;1.90;;;1.70;;
45356;SDS011;31092;51.924;21.448;2022-08-21T12:57:07;1.55;;;1.45;;
45356;SDS011;31092;51.924;21.448;2022-08-21T12:59:41;1.90;;;1.80;;
45356;SDS011;31092;51.924;21.448;2022-08-21T13:02:17;2.10;;;2.00;;
45356;SDS011;31092;51.924;21.448;2022-08-21T13:04:45;2.55;;;1.80;;
45356;SDS011;31092;51.924;21.448;2022-08-21T13:07:13;1.50;;;1.38;;
45356;SDS011;31092;51.924;21.448;2022-08-21T13:09:54;2.00;;;1.90;;
45356;SDS011;31092;51.924;21.448;2022-08-21T13:12:23;1.60;;;1.50;;
45356;SDS011;31092;51.924;21.448;2022-08-21T13:14:50;1.70;;;1.60;;
45356;SDS011;31092;51.924;21.448;2022-08-21T13:19:53;1.73;;;1.63;;
45356;SDS011;31092;51.924;21.448;2022-08-21T13:22:20;1.63;;;1.52;;
45356;SDS011;31092;51.924;21.448;2022-08-21T13:24:47;2.17;;;1.90;;
45356;SDS011;31092;51.924;21.448;2022-08-21T13:27:20;1.90;;;1.60;;
45356;SDS011;31092;51.924;21.448;2022-08-21T13:30:01;1.83;;;1.70;;
45356;SDS011;31092;51.924;21.448;2022-08-21T13:32:33;1.50;;;1.40;;
45356;SDS011;31092;51.924;21.448;2022-08-21T13:37:35;1.60;;;1.50;;
45356;SDS011;31092;51.924;21.448;2022-08-21T13:40:02;1.25;;;1.20;;
45356;SDS011;31092;51.924;21.448;2022-08-21T13:42:33;1.55;;;1.45;;
45356;SDS011;31092;51.924;21.448;2022-08-21T13:44:58;4.97;;;1.52;;
45356;SDS011;31092;51.924;21.448;2022-08-21T13:47:24;1.60;;;1.50;;
45356;SDS011;31092;51.924;21.448;2022-08-21T13:49:50;1.63;;;1.52;;
45356;SDS011;31092;51.924;21.448;2022-08-21T13:54:56;1.55;;;1.45;;
45356;SDS011;31092;51.924;21.448;2022-08-21T13:57:28;1.95;;;1.50;;
45356;SDS011;31092;51.924;21.448;2022-08-21T14:02:44;1.55;;;1.45;;
45356;SDS011;31092;51.924;21.448;2022-08-21T14:05:15;1.10;;;1.10;;
45356;SDS011;31092;51.924;21.448;2022-08-21T14:08:02;1.17;;;1.13;;
45356;SDS011;31092;51.924;21.448;2022-08-21T14:10:29;1.67;;;1.58;;
45356;SDS011;31092;51.924;21.448;2022-08-21T14:12:59;1.67;;;1.58;;
45356;SDS011;31092;51.924;21.448;2022-08-21T14:15:29;1.35;;;1.25;;
45356;SDS011;31092;51.924;21.448;2022-08-21T14:18:14;1.90;;;1.60;;
45356;SDS011;31092;51.924;21.448;2022-08-21T14:20:51;1.30;;;1.20;;
45356;SDS011;31092;51.924;21.448;2022-08-21T14:23:29;1.60;;;1.50;;
45356;SDS011;31092;51.924;21.448;2022-08-21T14:25:54;1.63;;;1.45;;
45356;SDS011;31092;51.924;21.448;2022-08-21T14:30:52;2.13;;;1.50;;
45356;SDS011;31092;51.924;21.448;2022-08-21T14:33:21;1.77;;;1.60;;
45356;SDS011;31092;51.924;21.448;2022-08-21T14:35:53;1.45;;;1.35;;
45356;SDS011;31092;51.924;21.448;2022-08-21T14:38:20;1.45;;;1.35;;
45356;SDS011;31092;51.924;21.448;2022-08-21T14:40:51;1.10;;;1.00;;
45356;SDS011;31092;51.924;21.448;2022-08-21T14:43:21;1.40;;;1.30;;
45356;SDS011;31092;51.924;21.448;2022-08-21T14:45:48;1.40;;;1.30;;
45356;SDS011;31092;51.924;21.448;2022-08-21T14:48:13;1.40;;;1.30;;
45356;SDS011;31092;51.924;21.448;2022-08-21T14:50:39;1.85;;;1.75;;
45356;SDS011;31092;51.924;21.448;2022-08-21T14:53:05;1.42;;;1.33;;
45356;SDS011;31092;51.924;21.448;2022-08-21T14:55:31;1.90;;;1.80;;
45356;SDS011;31092;51.924;21.448;2022-08-21T14:58:20;1.65;;;1.48;;
45356;SDS011;31092;51.924;21.448;2022-08-21T15:00:48;1.80;;;1.67;;
45356;SDS011;31092;51.924;21.448;2022-08-21T15:03:14;1.45;;;1.35;;
45356;SDS011;31092;51.924;21.448;2022-08-21T15:05:40;1.15;;;1.05;;
45356;SDS011;31092;51.924;21.448;2022-08-21T15:08:05;1.23;;;1.13;;
45356;SDS011;31092;51.924;21.448;2022-08-21T15:10:31;1.42;;;1.33;;
45356;SDS011;31092;51.924;21.448;2022-08-21T15:12:59;1.50;;;1.40;;
45356;SDS011;31092;51.924;21.448;2022-08-21T15:15:25;1.55;;;1.20;;
45356;SDS011;31092;51.924;21.448;2022-08-21T15:17:50;1.70;;;1.60;;
45356;SDS011;31092;51.924;21.448;2022-08-21T15:20:16;1.48;;;1.38;;
45356;SDS011;31092;51.924;21.448;2022-08-21T15:22:41;2.05;;;1.85;;
45356;SDS011;31092;51.924;21.448;2022-08-21T15:25:07;1.90;;;1.80;;
45356;SDS011;31092;51.924;21.448;2022-08-21T15:27:33;1.63;;;1.52;;
45356;SDS011;31092;51.924;21.448;2022-08-21T15:29:59;1.75;;;1.65;;
45356;SDS011;31092;51.924;21.448;2022-08-21T15:32:26;1.98;;;1.67;;
45356;SDS011;31092;51.924;21.448;2022-08-21T15:34:55;1.92;;;1.50;;
45356;SDS011;31092;51.924;21.448;2022-08-21T15:37:22;2.33;;;1.75;;
45356;SDS011;31092;51.924;21.448;2022-08-21T15:39:48;2.35;;;1.60;;
45356;SDS011;31092;51.924;21.448;2022-08-21T15:42:14;2.08;;;1.67;;
45356;SDS011;31092;51.924;21.448;2022-08-21T15:44:40;2.55;;;1.52;;
45356;SDS011;31092;51.924;21.448;2022-08-21T15:47:28;2.00;;;1.90;;
45356;SDS011;31092;51.924;21.448;2022-08-21T15:49:55;1.70;;;1.60;;
45356;SDS011;31092;51.924;21.448;2022-08-21T15:52:21;1.50;;;1.40;;
45356;SDS011;31092;51.924;21.448;2022-08-21T15:54:48;1.50;;;1.40;;
45356;SDS011;31092;51.924;21.448;2022-08-21T15:57:14;1.95;;;1.83;;
45356;SDS011;31092;51.924;21.448;2022-08-21T15:59:43;1.73;;;1.55;;
45356;SDS011;31092;51.924;21.448;2022-08-21T16:02:32;1.45;;;1.35;;
45356;SDS011;31092;51.924;21.448;2022-08-21T16:04:57;3.30;;;1.55;;
45356;SDS011;31092;51.924;21.448;2022-08-21T16:07:23;1.65;;;1.55;;
45356;SDS011;31092;51.924;21.448;2022-08-21T16:09:49;1.70;;;1.60;;
45356;SDS011;31092;51.924;21.448;2022-08-21T16:12:19;1.85;;;1.75;;
45356;SDS011;31092;51.924;21.448;2022-08-21T16:14:50;1.75;;;1.65;;
45356;SDS011;31092;51.924;21.448;2022-08-21T16:17:16;2.08;;;1.90;;
45356;SDS011;31092;51.924;21.448;2022-08-21T16:19:42;2.22;;;2.03;;
45356;SDS011;31092;51.924;21.448;2022-08-21T16:22:07;2.03;;;1.92;;
45356;SDS011;31092;51.924;21.448;2022-08-21T16:24:33;1.90;;;1.80;;